Pagrindinis puslapis
METAR-TAF:

METAR-TAF

Oro uostai :

Išigakis, Japonija

platuma: 24-20N, ilguma: 124-10E, Aukštis: 6 m

Dabartinis oras

Ataskaita buvo paskelbta 5 valandos ir 12 minutes, ne 11:00 UTC
Vėjas 9 kt iš Šiaurės, svyruoja nuo Šiaurės/Šiaurės Vakarų ir Šiaurės Rytų
Temperatūra 18°C
Drėgmė 73%
Slėgis 1014 hPa
Matomumas 10 km arba daugiau
Mažai debesys ne aukštis 3000 ft
Su prošvaistėmis ne aukštis 5000 ft
Liūtis kaimynystėje

METAR: ROIG 271100Z 36009KT 340V040 9999 VCSH FEW030 BKN050 18/13 Q1014

Laikas: 01:12 (16:12 UTC)

Prognozė

Ataskaita buvo paskelbta 5 valandos ir 4 minutes, ne 11:08 UTC
Prognozė galioja nuo 27 metu 12 UTC su 28 metu 18 UTC
Vėjas 9 kt iš Šiaurės
Matomumas 10 km arba daugiau
Mažai debesys ne aukštis 2000 ft
Su prošvaistėmis ne aukštis 4000 ft

TAF: ROIG 271108Z 2712/2818 36009KT 9999 FEW020 BKN040

Orai ataskaitas ir orų prognozės (METAR, TAF).

turimą stotys yra geltonos ir raudonos taškus žemėlapyje.

Perkelti pele per norėdami pamatyti stoties vardą.

Tada spustelėkite, norėdami matyti oro stebėjimo ir prognozės.

Norėdami pakeisti žemėlapį: spustelėkite ant žalios mygtukų su juodo kryžiaus žemyn,; žalią mygtuką su brūkšneliu, jei norite nutolinti; arba žalių rodyklių gretimoms žemėlapius.


METAR-TAF: